createdAt,value
2019-05-06T00:01:53.994Z,96639.86
2019-05-06T00:04:24.687Z,96641.14
2019-05-06T00:06:54.770Z,96642.50
2019-05-06T00:09:24.251Z,96639.91
2019-05-06T00:11:57.110Z,96641.61
2019-05-06T00:14:26.370Z,96641.59
2019-05-06T00:16:58.522Z,96644.91
2019-05-06T00:19:26.211Z,96641.33
2019-05-06T00:21:55.326Z,96646.36
2019-05-06T00:24:26.617Z,96639.70
2019-05-06T00:27:04.685Z,96639.59
2019-05-06T00:29:35.424Z,96639.39
2019-05-06T00:32:04.603Z,96642.94
2019-05-06T00:34:34.091Z,96642.39
2019-05-06T00:37:03.928Z,96642.59
2019-05-06T00:39:44.464Z,96641.73
2019-05-06T00:42:36.316Z,96635.94
2019-05-06T00:45:11.269Z,96640.02
2019-05-06T00:47:44.396Z,96639.56
2019-05-06T00:50:14.290Z,96641.25
2019-05-06T00:52:50.558Z,96644.02
2019-05-06T00:55:24.129Z,96646.28
2019-05-06T00:57:54.437Z,96642.20
2019-05-06T01:00:28.187Z,96647.36
2019-05-06T01:03:00.032Z,96646.34
2019-05-06T01:05:29.128Z,96646.24
2019-05-06T01:08:07.888Z,96645.20
2019-05-06T01:10:36.954Z,96650.64
2019-05-06T01:13:19.133Z,96645.48
2019-05-06T01:15:50.050Z,96648.70
2019-05-06T01:18:19.097Z,96653.09
2019-05-06T01:20:54.091Z,96654.37
2019-05-06T01:23:24.733Z,96655.53
2019-05-06T01:25:54.606Z,96658.34
2019-05-06T01:28:24.543Z,96655.00
2019-05-06T01:30:56.125Z,96654.01
2019-05-06T01:33:26.263Z,96649.03
2019-05-06T01:35:55.243Z,96651.42
2019-05-06T01:38:33.812Z,96654.30
2019-05-06T01:41:18.188Z,96651.72
2019-05-06T01:43:50.440Z,96657.71
2019-05-06T01:46:21.359Z,96660.69
2019-05-06T01:48:56.429Z,96653.29
2019-05-06T01:51:25.529Z,96654.23
2019-05-06T01:53:54.690Z,96654.13
2019-05-06T01:56:25.257Z,96659.55
2019-05-06T01:58:58.786Z,96656.48
2019-05-06T02:01:27.830Z,96660.66
2019-05-06T02:03:56.871Z,96657.42
2019-05-06T02:06:25.937Z,96655.30
2019-05-06T02:08:58.325Z,96661.22
2019-05-06T02:11:30.707Z,96661.80
2019-05-06T02:14:04.752Z,96665.88
2019-05-06T02:16:36.143Z,96667.27
2019-05-06T02:19:05.216Z,96666.36
2019-05-06T02:21:54.244Z,96669.44
2019-05-06T02:24:30.882Z,96667.56
2019-05-06T02:27:04.355Z,96666.68
2019-05-06T02:29:36.028Z,96666.58
2019-05-06T02:32:27.134Z,96666.05
2019-05-06T02:35:05.343Z,96664.03
2019-05-06T02:37:46.047Z,96672.70
2019-05-06T02:40:24.936Z,96667.33
2019-05-06T02:42:59.311Z,96673.49
2019-05-06T02:45:33.216Z,96671.92
2019-05-06T02:48:33.658Z,96678.98
2019-05-06T02:51:13.629Z,96679.22
2019-05-06T02:53:44.889Z,96673.03
2019-05-06T02:56:14.158Z,96684.69
2019-05-06T02:58:43.828Z,96684.36
2019-05-06T03:01:16.113Z,96684.56
2019-05-06T03:03:53.277Z,96680.28
2019-05-06T03:06:24.312Z,96676.30
2019-05-06T03:08:54.884Z,96680.73
2019-05-06T03:11:24.212Z,96683.85
2019-05-06T03:13:56.674Z,96681.88
2019-05-06T03:16:25.729Z,96682.61
2019-05-06T03:18:54.969Z,96678.98
2019-05-06T03:21:44.783Z,96684.52
2019-05-06T03:24:50.547Z,96684.38
2019-05-06T03:27:24.111Z,96684.66
2019-05-06T03:29:53.898Z,96689.09
2019-05-06T03:32:30.307Z,96691.41
2019-05-06T03:35:19.104Z,96694.80
2019-05-06T03:37:33.431Z,96690.44
2019-05-06T03:40:02.968Z,96693.11
2019-05-06T03:42:33.465Z,96690.45
2019-05-06T03:45:09.295Z,96694.91
2019-05-06T03:47:45.872Z,96695.28
2019-05-06T03:50:16.166Z,96694.39
2019-05-06T03:52:45.268Z,96693.01
2019-05-06T03:55:17.018Z,96701.37
2019-05-06T03:57:53.684Z,96697.98
2019-05-06T04:00:23.902Z,96702.23
2019-05-06T04:03:09.210Z,96707.00
2019-05-06T04:05:39.080Z,96703.06
2019-05-06T04:08:08.157Z,96707.05
2019-05-06T04:10:43.615Z,96701.40
2019-05-06T04:13:13.472Z,96700.28
2019-05-06T04:16:22.860Z,96701.88
2019-05-06T04:18:58.416Z,96706.89
2019-05-06T04:21:34.655Z,96706.72
2019-05-06T04:24:29.748Z,96705.14
2019-05-06T04:27:29.706Z,96710.67
2019-05-06T04:29:58.774Z,96712.66
2019-05-06T04:32:29.856Z,96711.88
2019-05-06T04:35:04.352Z,96715.92
2019-05-06T04:37:35.740Z,96718.71
2019-05-06T04:40:08.572Z,96715.70
2019-05-06T04:42:44.276Z,96726.37
2019-05-06T04:45:17.795Z,96731.44
2019-05-06T04:47:49.823Z,96729.94
2019-05-06T04:50:19.001Z,96731.34
2019-05-06T04:52:57.294Z,96730.75
2019-05-06T04:55:26.095Z,96738.97
2019-05-06T04:57:57.382Z,96736.89
2019-05-06T05:00:27.577Z,96738.84
2019-05-06T05:02:59.631Z,96738.41
2019-05-06T05:05:33.156Z,96740.83
2019-05-06T05:08:13.310Z,96729.67
2019-05-06T05:10:58.030Z,96732.84
2019-05-06T05:13:45.283Z,96731.86
2019-05-06T05:16:22.194Z,96737.55
2019-05-06T05:18:57.503Z,96736.76
2019-05-06T05:21:35.798Z,96743.77
2019-05-06T05:24:06.345Z,96738.24
2019-05-06T05:26:43.352Z,96744.25
2019-05-06T05:29:12.345Z,96751.30
2019-05-06T05:31:44.042Z,96747.89
2019-05-06T05:34:16.105Z,96757.98
2019-05-06T05:36:45.223Z,96754.52
2019-05-06T05:39:14.296Z,96753.07
2019-05-06T05:41:43.690Z,96760.44
2019-05-06T05:44:20.071Z,96762.34
2019-05-06T05:47:03.422Z,96766.88
2019-05-06T05:49:52.913Z,96770.67
2019-05-06T05:52:22.334Z,96775.27
2019-05-06T05:54:56.561Z,96774.30
2019-05-06T05:57:25.713Z,96780.72
2019-05-06T05:59:56.686Z,96777.06
2019-05-06T06:02:26.056Z,96775.83
2019-05-06T06:04:57.675Z,96787.45
2019-05-06T06:07:28.971Z,96775.58
2019-05-06T06:10:08.777Z,96871.17
2019-05-06T06:12:42.814Z,96783.38
2019-05-06T06:15:22.068Z,96785.16
2019-05-06T06:18:29.762Z,96784.59
2019-05-06T06:21:28.125Z,96790.78
2019-05-06T06:23:59.627Z,96790.55
2019-05-06T06:26:32.364Z,96795.76
2019-05-06T06:29:03.264Z,96796.92
2019-05-06T06:31:49.806Z,96791.11
2019-05-06T06:34:32.958Z,96800.78
2019-05-06T06:37:30.081Z,96800.41
2019-05-06T06:40:02.423Z,96796.94
2019-05-06T06:42:35.086Z,96793.83
2019-05-06T06:45:12.363Z,96799.02
2019-05-06T06:47:48.673Z,96800.81
2019-05-06T06:50:19.353Z,96795.74
2019-05-06T06:53:07.419Z,96795.13
2019-05-06T06:55:42.665Z,96796.80
2019-05-06T06:58:41.752Z,96800.00
2019-05-06T07:01:33.287Z,96802.47
2019-05-06T07:04:13.432Z,96803.54
2019-05-06T07:06:53.008Z,96804.50
2019-05-06T07:09:23.205Z,96800.45
2019-05-06T07:11:52.687Z,96795.48
2019-05-06T07:14:23.044Z,96799.13
2019-05-06T07:16:57.302Z,96798.47
2019-05-06T07:19:42.143Z,96802.16
2019-05-06T07:22:12.716Z,96806.94
2019-05-06T07:24:43.125Z,96804.33
2019-05-06T07:27:28.372Z,96805.70
2019-05-06T07:30:03.027Z,96799.87
2019-05-06T07:32:32.574Z,96625.81
2019-05-06T07:35:02.503Z,96797.59
2019-05-06T07:37:36.963Z,96536.93
2019-05-06T07:40:07.539Z,96804.17
2019-05-06T07:42:44.966Z,96808.28
2019-05-06T07:45:24.061Z,96898.39
2019-05-06T07:48:12.775Z,96812.22
2019-05-06T07:50:36.968Z,96810.44
2019-05-06T07:53:09.999Z,96819.77
2019-05-06T07:55:42.432Z,96815.39
2019-05-06T07:58:13.832Z,96816.13
2019-05-06T08:00:44.445Z,96821.77
2019-05-06T08:03:16.080Z,96821.08
2019-05-06T08:05:55.822Z,96822.36
2019-05-06T08:08:19.159Z,96824.16
2019-05-06T08:10:48.215Z,96822.64
2019-05-06T08:13:17.397Z,96825.56
2019-05-06T08:15:49.125Z,96824.36
2019-05-06T08:18:18.334Z,96823.37
2019-05-06T08:20:47.589Z,96827.39
2019-05-06T08:23:26.551Z,96829.84
2019-05-06T08:26:09.061Z,96830.81
2019-05-06T08:28:41.043Z,96778.18
2019-05-06T08:31:02.499Z,96838.59
2019-05-06T08:33:32.806Z,96837.91
2019-05-06T08:36:11.662Z,96834.98
2019-05-06T08:38:53.187Z,96836.38
2019-05-06T08:41:27.210Z,96845.34
2019-05-06T08:43:58.102Z,96835.66
2019-05-06T08:46:27.170Z,96830.66
2019-05-06T08:48:56.420Z,96571.91
2019-05-06T08:51:37.396Z,96833.59
2019-05-06T08:54:15.567Z,96830.55
2019-05-06T08:56:44.985Z,96819.98
2019-05-06T08:59:18.379Z,96820.13
2019-05-06T09:01:53.329Z,96821.92
2019-05-06T09:04:22.980Z,96819.55
2019-05-06T09:06:53.423Z,96822.56
2019-05-06T09:09:22.922Z,96824.77
2019-05-06T09:11:53.497Z,96823.56
2019-05-06T09:14:23.432Z,96822.06
2019-05-06T09:16:54.280Z,96817.24
2019-05-06T09:19:25.766Z,96813.28
2019-05-06T09:21:54.826Z,96819.55
2019-05-06T09:24:27.054Z,96909.38
2019-05-06T09:27:15.926Z,96811.81
2019-05-06T09:29:52.315Z,96815.77
2019-05-06T09:32:35.956Z,96814.27
2019-05-06T09:35:03.370Z,96685.53
2019-05-06T09:37:32.691Z,96821.72
2019-05-06T09:40:03.025Z,96811.70
2019-05-06T09:42:44.334Z,96822.92
2019-05-06T09:45:16.510Z,96821.15
2019-05-06T09:47:54.768Z,96809.43
2019-05-06T09:50:38.441Z,96811.81
2019-05-06T09:53:12.964Z,96805.34
2019-05-06T09:56:04.629Z,96811.55
2019-05-06T09:58:34.866Z,96807.79
2019-05-06T10:01:04.787Z,96810.49
2019-05-06T10:03:34.514Z,96805.17
2019-05-06T10:06:05.939Z,96803.41
2019-05-06T10:08:35.036Z,96812.73
2019-05-06T10:11:04.116Z,96813.91
2019-05-06T10:13:34.442Z,96808.37
2019-05-06T10:16:05.374Z,96812.20
2019-05-06T10:18:36.832Z,96807.36
2019-05-06T10:21:06.594Z,96810.23
2019-05-06T10:23:38.365Z,96811.06
2019-05-06T10:26:07.422Z,96879.04
2019-05-06T10:28:53.794Z,96810.53
2019-05-06T10:31:25.682Z,96894.97
2019-05-06T10:34:16.838Z,96807.87
2019-05-06T10:37:12.594Z,96799.83
2019-05-06T10:39:37.096Z,96798.23
2019-05-06T10:42:13.482Z,96801.39
2019-05-06T10:45:29.331Z,96798.47
2019-05-06T10:48:02.575Z,96801.78
2019-05-06T10:50:37.441Z,96795.06
2019-05-06T10:53:24.428Z,96792.30
2019-05-06T10:55:56.877Z,96787.89
2019-05-06T10:58:28.173Z,96788.81
2019-05-06T11:01:29.707Z,96790.61
2019-05-06T11:04:03.629Z,96793.73
2019-05-06T11:06:34.392Z,96787.55
2019-05-06T11:09:05.164Z,96785.27
2019-05-06T11:11:38.828Z,96783.20
2019-05-06T11:14:12.820Z,96787.14
2019-05-06T11:16:41.858Z,96778.67
2019-05-06T11:19:13.355Z,96781.03
2019-05-06T11:21:45.190Z,96781.02
2019-05-06T11:24:14.622Z,96784.19
2019-05-06T11:26:46.893Z,96781.11
2019-05-06T11:29:21.728Z,96779.73
2019-05-06T11:32:02.803Z,96494.96
2019-05-06T11:34:55.807Z,96789.77
2019-05-06T11:37:47.085Z,96790.30
2019-05-06T11:40:08.727Z,96787.96
2019-05-06T11:42:39.568Z,96786.67
2019-05-06T11:45:13.360Z,96787.77
2019-05-06T11:47:42.471Z,96785.78
2019-05-06T11:50:13.004Z,96786.59
2019-05-06T11:52:43.311Z,96963.30
2019-05-06T11:55:31.654Z,96780.51
2019-05-06T11:57:53.204Z,96777.53
2019-05-06T12:00:35.960Z,96774.20
2019-05-06T12:03:04.925Z,96773.27
2019-05-06T12:05:35.146Z,96781.03
2019-05-06T12:08:07.979Z,96787.59
2019-05-06T12:10:37.091Z,96786.06
2019-05-06T12:13:06.250Z,96777.56
2019-05-06T12:15:36.143Z,96784.70
2019-05-06T12:18:06.420Z,96778.09
2019-05-06T12:20:37.351Z,96784.47
2019-05-06T12:23:09.329Z,96781.12
2019-05-06T12:25:38.523Z,96780.58
2019-05-06T12:28:07.616Z,96773.22
2019-05-06T12:30:37.972Z,96769.86
2019-05-06T12:33:35.239Z,96775.74
2019-05-06T12:36:16.728Z,96777.88
2019-05-06T12:39:06.584Z,96776.26
2019-05-06T12:41:37.763Z,96770.24
2019-05-06T12:44:09.235Z,96777.20
2019-05-06T12:46:49.415Z,96770.16
2019-05-06T12:49:20.817Z,96772.56
2019-05-06T12:51:55.004Z,96768.80
2019-05-06T12:54:25.180Z,96772.60
2019-05-06T12:56:55.987Z,96779.72
2019-05-06T12:59:28.996Z,96777.22
2019-05-06T13:02:03.975Z,96785.43
2019-05-06T13:04:50.244Z,96774.27
2019-05-06T13:07:07.829Z,96781.05
2019-05-06T13:09:37.409Z,96774.53
2019-05-06T13:12:12.491Z,96778.90
2019-05-06T13:14:43.126Z,96773.31
2019-05-06T13:17:16.970Z,96765.73
2019-05-06T13:19:46.473Z,96770.40
2019-05-06T13:22:33.985Z,96775.45
2019-05-06T13:25:04.116Z,96770.92
2019-05-06T13:27:44.581Z,96768.70
2019-05-06T13:30:13.987Z,96769.39
2019-05-06T13:32:48.462Z,96775.30
2019-05-06T13:35:19.292Z,96579.33
2019-05-06T13:37:52.814Z,96781.59
2019-05-06T13:40:23.070Z,96781.05
2019-05-06T13:43:13.530Z,96778.39
2019-05-06T13:45:52.523Z,96777.05
2019-05-06T13:48:36.197Z,96775.70
2019-05-06T13:51:12.986Z,96764.06
2019-05-06T13:53:46.037Z,96771.56
2019-05-06T13:56:16.863Z,96768.05
2019-05-06T13:58:48.016Z,96755.27
2019-05-06T14:01:19.857Z,96764.06
2019-05-06T14:03:49.151Z,96771.45
2019-05-06T14:06:22.193Z,96763.50
2019-05-06T14:08:55.112Z,96759.63
2019-05-06T14:11:24.454Z,96759.98
2019-05-06T14:13:53.637Z,96759.59
2019-05-06T14:16:24.720Z,96756.86
2019-05-06T14:18:54.225Z,96756.91
2019-05-06T14:21:23.798Z,96757.37
2019-05-06T14:23:55.589Z,96763.80
2019-05-06T14:26:44.833Z,96762.94
2019-05-06T14:29:42.398Z,96779.69
2019-05-06T14:32:14.574Z,96765.89
2019-05-06T14:34:43.456Z,96762.69
2019-05-06T14:37:14.115Z,96767.48
2019-05-06T14:39:53.829Z,96763.21
2019-05-06T14:42:24.889Z,96757.92
2019-05-06T14:44:56.044Z,96767.88
2019-05-06T14:47:33.816Z,96770.16
2019-05-06T14:50:03.901Z,96773.53
2019-05-06T14:52:33.575Z,96768.07
2019-05-06T14:55:16.840Z,96761.05
2019-05-06T14:58:04.563Z,96763.78
2019-05-06T15:00:36.201Z,96766.52
2019-05-06T15:03:05.401Z,96768.88
2019-05-06T15:05:36.704Z,96776.09
2019-05-06T15:08:05.864Z,96769.66
2019-05-06T15:10:37.765Z,96768.07
2019-05-06T15:13:12.503Z,96769.44
2019-05-06T15:15:44.172Z,96765.66
2019-05-06T15:18:13.449Z,96768.28
2019-05-06T15:20:43.917Z,96767.95
2019-05-06T15:23:14.270Z,96765.66
2019-05-06T15:25:49.042Z,96762.53
2019-05-06T15:28:19.894Z,96759.60
2019-05-06T15:31:03.153Z,96770.08
2019-05-06T15:33:39.400Z,96764.48
2019-05-06T15:36:22.922Z,96766.29
2019-05-06T15:38:59.352Z,96763.84
2019-05-06T15:41:28.760Z,96765.08
2019-05-06T15:44:00.272Z,96771.42
2019-05-06T15:46:32.319Z,96772.14
2019-05-06T15:49:06.314Z,96767.80
2019-05-06T15:51:37.004Z,96776.05
2019-05-06T15:54:09.240Z,96771.67
2019-05-06T15:56:45.896Z,96778.20
2019-05-06T15:59:19.027Z,96774.05
2019-05-06T16:01:55.586Z,96770.70
2019-05-06T16:04:32.551Z,96768.31
2019-05-06T16:07:08.105Z,96769.69
2019-05-06T16:09:42.697Z,96773.62
2019-05-06T16:12:18.045Z,96767.42
2019-05-06T16:14:53.087Z,96768.54
2019-05-06T16:17:29.310Z,96774.31
2019-05-06T16:20:02.743Z,96766.11
2019-05-06T16:22:37.977Z,96773.86
2019-05-06T16:25:13.907Z,96772.80
2019-05-06T16:27:54.824Z,96769.08
2019-05-06T16:30:27.724Z,96779.28
2019-05-06T16:33:03.972Z,96770.70
2019-05-06T16:35:33.413Z,96770.92
2019-05-06T16:38:27.461Z,96776.52
2019-05-06T16:41:10.500Z,96781.32
2019-05-06T16:43:37.239Z,96788.73
2019-05-06T16:46:12.659Z,96774.69
2019-05-06T16:48:55.080Z,96771.23
2019-05-06T16:51:28.638Z,96781.05
2019-05-06T16:54:06.130Z,96781.02
2019-05-06T16:56:57.054Z,96782.91
2019-05-06T16:59:34.685Z,96776.83
2019-05-06T17:02:17.027Z,96777.61
2019-05-06T17:05:06.097Z,96774.20
2019-05-06T17:07:45.016Z,96783.44
2019-05-06T17:10:22.989Z,96783.17
2019-05-06T17:12:59.771Z,96779.55
2019-05-06T17:15:36.277Z,96779.23
2019-05-06T17:18:06.589Z,96780.25
2019-05-06T17:20:42.776Z,96781.27
2019-05-06T17:23:14.593Z,96775.74
2019-05-06T17:25:52.097Z,96782.88
2019-05-06T17:28:33.709Z,96786.37
2019-05-06T17:31:27.449Z,96786.48
2019-05-06T17:33:57.475Z,96775.66
2019-05-06T17:36:28.265Z,96783.50
2019-05-06T17:38:59.254Z,96781.52
2019-05-06T17:41:42.386Z,96784.52
2019-05-06T17:44:03.718Z,96783.70
2019-05-06T17:46:42.676Z,96786.28
2019-05-06T17:49:20.748Z,96790.63
2019-05-06T17:52:13.162Z,96780.48
2019-05-06T17:54:44.558Z,96787.55
2019-05-06T17:57:13.662Z,96785.27
2019-05-06T17:59:42.842Z,96790.56
2019-05-06T18:02:19.278Z,96799.39
2019-05-06T18:04:48.068Z,96796.99
2019-05-06T18:07:18.587Z,96799.64
2019-05-06T18:09:52.395Z,96799.65
2019-05-06T18:12:23.227Z,96793.00
2019-05-06T18:14:55.936Z,96797.70
2019-05-06T18:17:25.391Z,96802.00
2019-05-06T18:19:56.701Z,96801.74
2019-05-06T18:22:29.625Z,96811.86
2019-05-06T18:25:03.204Z,96812.92
2019-05-06T18:27:32.717Z,96815.84
2019-05-06T18:30:13.471Z,96817.45
2019-05-06T18:32:33.930Z,96813.63
2019-05-06T18:35:03.041Z,96819.55
2019-05-06T18:37:34.075Z,96815.81
2019-05-06T18:40:05.155Z,96818.95
2019-05-06T18:42:37.061Z,96817.88
2019-05-06T18:45:06.983Z,96824.04
2019-05-06T18:47:36.108Z,96828.74
2019-05-06T18:50:05.941Z,96831.40
2019-05-06T18:52:35.053Z,96830.32
2019-05-06T18:55:04.192Z,96828.73
2019-05-06T18:57:33.306Z,96834.84
2019-05-06T19:00:04.155Z,96836.04
2019-05-06T19:02:33.277Z,96836.48
2019-05-06T19:05:13.103Z,96836.77
2019-05-06T19:07:43.424Z,96839.11
2019-05-06T19:10:22.508Z,96843.77
2019-05-06T19:12:52.848Z,96843.20
2019-05-06T19:15:23.862Z,96847.58
2019-05-06T19:17:54.339Z,96845.73
2019-05-06T19:20:27.786Z,96850.25
2019-05-06T19:22:56.890Z,96851.63
2019-05-06T19:25:26.676Z,96862.02
2019-05-06T19:27:57.245Z,96859.09
2019-05-06T19:30:31.871Z,96858.84
2019-05-06T19:33:02.386Z,96854.91
2019-05-06T19:35:39.954Z,96865.01
2019-05-06T19:38:09.103Z,96858.36
2019-05-06T19:40:38.200Z,96952.59
2019-05-06T19:43:09.163Z,96852.20
2019-05-06T19:45:38.269Z,96858.84
2019-05-06T19:48:08.967Z,96862.19
2019-05-06T19:50:42.484Z,96859.86
2019-05-06T19:53:11.815Z,96860.58
2019-05-06T19:55:46.798Z,96863.20
2019-05-06T19:58:14.568Z,96859.81
2019-05-06T20:00:43.665Z,96855.91
2019-05-06T20:03:13.603Z,96859.33
2019-05-06T20:06:10.450Z,96854.59
2019-05-06T20:08:52.861Z,96855.66
2019-05-06T20:11:33.155Z,96857.49
2019-05-06T20:14:03.490Z,96851.77
2019-05-06T20:16:33.345Z,96855.80
2019-05-06T20:19:05.335Z,96852.13
2019-05-06T20:21:36.179Z,96851.75
2019-05-06T20:24:05.332Z,96849.64
2019-05-06T20:26:34.435Z,96846.43
2019-05-06T20:29:03.592Z,96842.60
2019-05-06T20:31:33.933Z,96847.45
2019-05-06T20:34:06.123Z,96844.59
2019-05-06T20:36:37.597Z,96842.31
2019-05-06T20:39:12.220Z,96845.77
2019-05-06T20:41:42.492Z,96838.95
2019-05-06T20:44:12.345Z,96840.84
2019-05-06T20:46:42.918Z,96832.81
2019-05-06T20:49:13.222Z,96834.28
2019-05-06T20:51:42.552Z,96831.45
2019-05-06T20:54:15.648Z,96832.66
2019-05-06T20:56:44.812Z,96828.03
2019-05-06T20:59:17.092Z,96830.78
2019-05-06T21:01:46.228Z,96824.45
2019-05-06T21:04:15.328Z,96822.33
2019-05-06T21:06:45.502Z,96823.08
2019-05-06T21:09:14.667Z,96823.55
2019-05-06T21:11:44.929Z,96830.63
2019-05-06T21:14:15.814Z,96828.07
2019-05-06T21:16:48.375Z,96829.39
2019-05-06T21:19:22.275Z,96830.27
2019-05-06T21:21:57.196Z,96828.98
2019-05-06T21:24:26.521Z,96828.58
2019-05-06T21:26:55.693Z,96829.52
2019-05-06T21:29:27.890Z,96833.55
2019-05-06T21:31:56.992Z,96826.28
2019-05-06T21:34:26.060Z,96825.52
2019-05-06T21:36:55.174Z,96823.13
2019-05-06T21:39:25.142Z,96825.92
2019-05-06T21:41:54.239Z,96826.62
2019-05-06T21:44:23.310Z,96828.22
2019-05-06T21:46:54.036Z,96828.47
2019-05-06T21:49:23.409Z,96814.91
2019-05-06T21:51:52.530Z,96823.04
2019-05-06T21:54:23.176Z,96819.28
2019-05-06T21:56:58.309Z,96823.66
2019-05-06T21:59:30.063Z,96821.69
2019-05-06T22:01:59.117Z,96818.30
2019-05-06T22:04:38.668Z,96817.04
2019-05-06T22:07:12.108Z,96810.25
2019-05-06T22:09:43.050Z,96816.08
2019-05-06T22:12:13.927Z,96819.38
2019-05-06T22:14:47.232Z,96817.13
2019-05-06T22:17:16.307Z,96812.45
2019-05-06T22:19:45.377Z,96808.63
2019-05-06T22:22:15.415Z,96811.03
2019-05-06T22:24:57.380Z,96800.19
2019-05-06T22:27:28.565Z,96803.41
2019-05-06T22:29:57.578Z,96800.84
2019-05-06T22:32:28.024Z,96805.34
2019-05-06T22:34:59.557Z,96797.52
2019-05-06T22:37:29.035Z,96808.72
2019-05-06T22:40:02.156Z,96815.31
2019-05-06T22:42:32.387Z,96804.44
2019-05-06T22:45:04.734Z,96806.20
2019-05-06T22:47:33.763Z,96801.42
2019-05-06T22:50:05.863Z,96802.42
2019-05-06T22:52:35.240Z,96805.80
2019-05-06T22:55:05.950Z,96804.35
2019-05-06T22:57:35.129Z,96802.44
2019-05-06T23:00:08.611Z,96804.92
2019-05-06T23:02:46.096Z,96806.20
2019-05-06T23:05:23.082Z,96801.80
2019-05-06T23:07:53.277Z,96801.52
2019-05-06T23:10:24.726Z,96796.55
2019-05-06T23:12:53.373Z,96798.27
2019-05-06T23:15:25.485Z,96796.50
2019-05-06T23:17:54.950Z,96796.84
2019-05-06T23:20:25.284Z,96793.48
2019-05-06T23:22:56.678Z,96794.95
2019-05-06T23:25:25.777Z,96798.23
2019-05-06T23:27:54.818Z,96802.30
2019-05-06T23:30:23.928Z,96800.91
2019-05-06T23:32:53.140Z,96793.44
2019-05-06T23:35:22.304Z,96793.37
2019-05-06T23:38:27.198Z,96790.70
2019-05-06T23:41:32.840Z,96787.61
2019-05-06T23:44:45.727Z,96791.11
2019-05-06T23:47:48.174Z,96789.99
2019-05-06T23:50:53.977Z,96785.55
2019-05-06T23:53:58.795Z,96785.17
2019-05-06T23:56:43.494Z,96779.59
2019-05-06T23:59:14.497Z,96781.50
